Time;durP1;ratioP1;P1;durP2;ratioP2;P2;SDS_P1;SDS_P2;PMS_P1;PMS_P2;Temp;Humidity;BMP_temperature;BMP_pressure;BME280_temperature;BME280_humidity;BME280_pressure;Samples;Min_cycle;Max_cycle;Signal;HPM_P1;HPM_P2
2021/12/07 00:01:34;;;;;;;20.10;8.85;;;;;;;;;;5033407;28;20051;-76
2021/12/07 00:04:00;;;;;;;20.08;9.95;;;;;;;;;;5035287;28;20476;-77
2021/12/07 00:06:26;;;;;;;17.67;8.35;;;;;;;;;;5053742;28;20060;-76
2021/12/07 00:08:55;;;;;;;21.20;8.70;;;;;;;;;;5053428;28;20174;-77
2021/12/07 00:11:22;;;;;;;22.58;9.77;;;;;;;;;;5053737;28;20044;-76
2021/12/07 00:13:48;;;;;;;16.20;8.80;;;;;;;;;;5053365;28;20044;-77
2021/12/07 00:16:15;;;;;;;17.52;8.40;;;;;;;;;;5053520;28;20047;-76
2021/12/07 00:18:41;;;;;;;22.08;9.02;;;;;;;;;;5053616;28;20055;-76
2021/12/07 00:21:08;;;;;;;22.70;10.40;;;;;;;;;;5053142;28;20079;-77
2021/12/07 00:23:34;;;;;;;18.00;9.45;;;;;;;;;;5053611;28;20044;-77
2021/12/07 00:26:00;;;;;;;19.23;9.43;;;;;;;;;;5053586;28;20044;-77
2021/12/07 00:28:26;;;;;;;20.48;9.20;;;;;;;;;;5036799;28;20090;-74
2021/12/07 00:30:53;;;;;;;22.52;9.43;;;;;;;;;;5053447;28;20493;-75
2021/12/07 00:35:52;;;;;;;22.27;9.85;;;;;;;;;;5053425;28;20041;-77
2021/12/07 00:38:21;;;;;;;22.05;9.57;;;;;;;;;;5053483;28;20507;-76
2021/12/07 00:40:48;;;;;;;20.00;8.48;;;;;;;;;;5036395;28;20447;-75
2021/12/07 00:43:14;;;;;;;19.35;9.18;;;;;;;;;;5036634;28;20040;-76
2021/12/07 00:45:45;;;;;;;20.08;9.10;;;;;;;;;;5036313;28;20045;-76
2021/12/07 00:48:11;;;;;;;17.52;8.90;;;;;;;;;;5055613;28;20044;-76
2021/12/07 00:50:37;;;;;;;24.63;10.48;;;;;;;;;;5056784;28;20396;-77
2021/12/07 00:53:05;;;;;;;20.42;9.88;;;;;;;;;;5057011;28;20044;-76
2021/12/07 00:55:33;;;;;;;22.55;9.55;;;;;;;;;;5057141;28;20040;-74
2021/12/07 00:58:00;;;;;;;26.85;10.18;;;;;;;;;;5056800;28;20036;-76
2021/12/07 01:00:28;;;;;;;19.35;8.45;;;;;;;;;;5057118;28;20041;-77
2021/12/07 01:02:54;;;;;;;16.80;7.72;;;;;;;;;;5033802;28;20032;-77
2021/12/07 01:05:27;;;;;;;21.50;8.80;;;;;;;;;;5028372;28;20167;-77
2021/12/07 01:08:10;;;;;;;18.90;9.63;;;;;;;;;;5028069;28;20502;-77
2021/12/07 01:24:43;;;;;;;21.52;8.77;;;;;;;;;;5069045;28;20072;-76
2021/12/07 01:27:11;;;;;;;18.60;9.00;;;;;;;;;;5070431;28;20040;-76
2021/12/07 01:29:39;;;;;;;18.90;8.57;;;;;;;;;;5027666;28;20044;-76
2021/12/07 01:32:32;;;;;;;18.67;8.95;;;;;;;;;;5045317;28;20055;-76
2021/12/07 01:35:18;;;;;;;24.00;9.15;;;;;;;;;;5046177;28;20649;-76
2021/12/07 01:40:43;;;;;;;18.33;6.97;;;;;;;;;;5044698;28;20382;-76
2021/12/07 01:43:40;;;;;;;17.65;8.18;;;;;;;;;;5045112;28;20041;-77
2021/12/07 01:46:42;;;;;;;19.67;8.57;;;;;;;;;;5043610;28;20052;-76
2021/12/07 01:59:50;;;;;;;19.58;8.98;;;;;;;;;;5055094;28;20045;-76
2021/12/07 02:02:17;;;;;;;22.02;8.98;;;;;;;;;;5055780;28;20369;-77
2021/12/07 02:04:43;;;;;;;18.40;8.45;;;;;;;;;;5039313;28;20040;-76
2021/12/07 02:07:09;;;;;;;21.55;8.57;;;;;;;;;;5055664;28;20045;-76
2021/12/07 02:09:38;;;;;;;21.67;8.82;;;;;;;;;;5055853;28;20094;-76
2021/12/07 02:12:06;;;;;;;20.83;8.77;;;;;;;;;;5055524;28;20040;-77
2021/12/07 02:14:32;;;;;;;22.92;9.98;;;;;;;;;;5055667;28;20101;-77
2021/12/07 02:16:59;;;;;;;19.85;9.15;;;;;;;;;;5055340;28;20048;-76
2021/12/07 02:19:26;;;;;;;22.52;8.52;;;;;;;;;;5055381;28;20043;-78
2021/12/07 02:21:53;;;;;;;16.70;7.30;;;;;;;;;;5055200;28;20059;-77
2021/12/07 02:24:19;;;;;;;19.90;8.35;;;;;;;;;;5055285;28;20051;-77
2021/12/07 02:26:49;;;;;;;18.80;8.82;;;;;;;;;;5038705;28;20059;-77
2021/12/07 02:29:16;;;;;;;20.00;8.30;;;;;;;;;;5038630;28;20458;-77
2021/12/07 02:31:42;;;;;;;17.77;8.60;;;;;;;;;;5055202;28;20040;-77
2021/12/07 02:34:08;;;;;;;18.52;9.05;;;;;;;;;;5038488;28;20086;-76
2021/12/07 02:36:35;;;;;;;19.80;8.10;;;;;;;;;;5054911;28;20037;-76
2021/12/07 02:39:03;;;;;;;18.30;8.13;;;;;;;;;;5054919;28;20411;-77
2021/12/07 02:41:29;;;;;;;18.42;7.80;;;;;;;;;;5038490;28;20059;-77
2021/12/07 02:43:55;;;;;;;19.33;8.75;;;;;;;;;;5054787;28;20045;-76
2021/12/07 02:46:20;;;;;;;20.83;8.98;;;;;;;;;;5054838;28;20474;-77
2021/12/07 02:48:46;;;;;;;19.88;8.38;;;;;;;;;;5054757;28;20146;-77
2021/12/07 02:51:12;;;;;;;18.65;7.15;;;;;;;;;;5054759;28;20131;-76
2021/12/07 02:53:38;;;;;;;16.90;7.47;;;;;;;;;;5054960;28;20131;-75
2021/12/07 02:56:05;;;;;;;21.50;8.23;;;;;;;;;;5054822;28;20083;-76
2021/12/07 02:58:31;;;;;;;16.90;7.40;;;;;;;;;;5038044;28;20549;-76
2021/12/07 03:01:04;;;;;;;18.08;8.57;;;;;;;;;;5038334;28;20177;-77
2021/12/07 03:03:35;;;;;;;16.98;7.13;;;;;;;;;;5038087;28;20044;-77
2021/12/07 03:06:50;;;;;;;17.92;7.10;;;;;;;;;;5037945;28;20832;-77
2021/12/07 03:27:59;;;;;;;17.35;8.40;;;;;;;;;;5054097;28;20568;-76
2021/12/07 03:30:26;;;;;;;16.98;8.45;;;;;;;;;;5054443;28;20500;-75
2021/12/07 03:32:52;;;;;;;18.88;8.52;;;;;;;;;;5037513;28;20097;-76
2021/12/07 03:35:19;;;;;;;19.98;8.93;;;;;;;;;;5037840;28;20056;-76
2021/12/07 03:37:45;;;;;;;22.15;9.50;;;;;;;;;;5053937;28;20041;-76
2021/12/07 03:40:12;;;;;;;18.65;9.05;;;;;;;;;;5054129;28;20048;-76
2021/12/07 03:42:38;;;;;;;17.83;8.43;;;;;;;;;;5037259;28;20060;-76
2021/12/07 03:45:06;;;;;;;20.13;9.30;;;;;;;;;;5037065;28;20039;-76
2021/12/07 03:47:32;;;;;;;20.40;10.13;;;;;;;;;;5053323;28;20044;-76
2021/12/07 03:49:58;;;;;;;22.52;9.63;;;;;;;;;;5037199;28;20041;-77
2021/12/07 03:52:24;;;;;;;19.65;9.30;;;;;;;;;;5037111;28;20041;-77
2021/12/07 03:54:50;;;;;;;22.00;10.45;;;;;;;;;;5037286;28;20052;-76
2021/12/07 03:57:16;;;;;;;20.67;9.45;;;;;;;;;;5036918;28;20043;-76
2021/12/07 03:59:42;;;;;;;21.45;9.57;;;;;;;;;;5037289;28;20040;-76
2021/12/07 04:02:08;;;;;;;20.67;9.48;;;;;;;;;;5053598;28;20480;-76
2021/12/07 04:04:35;;;;;;;21.40;9.65;;;;;;;;;;5053502;28;20086;-76
2021/12/07 04:07:01;;;;;;;23.42;12.18;;;;;;;;;;5037047;28;20071;-76
2021/12/07 04:09:27;;;;;;;20.85;10.13;;;;;;;;;;5036797;28;20032;-77
2021/12/07 04:11:54;;;;;;;18.92;9.10;;;;;;;;;;5053552;28;20056;-76
2021/12/07 04:14:20;;;;;;;22.58;9.27;;;;;;;;;;5053475;28;20507;-76
2021/12/07 04:16:46;;;;;;;21.75;10.13;;;;;;;;;;5053291;28;20079;-76
2021/12/07 04:19:12;;;;;;;28.65;11.93;;;;;;;;;;5037109;28;20452;-75
2021/12/07 04:21:38;;;;;;;20.00;9.05;;;;;;;;;;5037245;28;20102;-76
2021/12/07 04:24:04;;;;;;;23.02;10.25;;;;;;;;;;5060226;28;20434;-76
2021/12/07 04:26:31;;;;;;;18.67;9.18;;;;;;;;;;5059814;28;20412;-76
2021/12/07 04:28:57;;;;;;;22.80;10.05;;;;;;;;;;5060089;28;20036;-77
2021/12/07 04:31:24;;;;;;;22.65;9.43;;;;;;;;;;5060109;28;20534;-77
2021/12/07 04:33:50;;;;;;;21.33;10.10;;;;;;;;;;5059899;28;20040;-76
2021/12/07 04:36:16;;;;;;;21.23;9.43;;;;;;;;;;5043116;28;20044;-76
2021/12/07 04:38:42;;;;;;;17.55;8.52;;;;;;;;;;5043195;28;20040;-76
2021/12/07 04:41:08;;;;;;;23.85;9.82;;;;;;;;;;5060125;28;20044;-77
2021/12/07 04:43:36;;;;;;;17.67;7.80;;;;;;;;;;5043216;28;20040;-76
2021/12/07 04:46:16;;;;;;;19.65;8.63;;;;;;;;;;5043077;28;20062;-76
2021/12/07 04:59:42;;;;;;;21.25;9.45;;;;;;;;;;5059751;28;20044;-76
2021/12/07 05:02:08;;;;;;;21.27;8.73;;;;;;;;;;5043253;28;20040;-76
2021/12/07 05:04:36;;;;;;;21.83;9.02;;;;;;;;;;5042966;28;20044;-76
2021/12/07 05:07:10;;;;;;;21.00;9.65;;;;;;;;;;5059784;28;20049;-76
2021/12/07 05:14:45;;;;;;;22.60;9.77;;;;;;;;;;5059810;28;20139;-76
2021/12/07 05:34:38;;;;;;;24.27;10.27;;;;;;;;;;5059455;28;20047;-76
2021/12/07 05:38:54;;;;;;;21.92;7.78;;;;;;;;;;5056388;28;20040;-76
2021/12/07 05:41:20;;;;;;;18.65;8.73;;;;;;;;;;5056114;28;20052;-76
2021/12/07 05:43:46;;;;;;;20.63;8.73;;;;;;;;;;5056254;28;20366;-76
2021/12/07 05:46:12;;;;;;;16.95;7.68;;;;;;;;;;5056069;28;20110;-76
2021/12/07 05:48:38;;;;;;;21.40;8.25;;;;;;;;;;5039743;28;20070;-76
2021/12/07 05:51:04;;;;;;;22.00;8.13;;;;;;;;;;5056188;28;20079;-76
2021/12/07 05:53:30;;;;;;;19.02;8.63;;;;;;;;;;5056017;28;20052;-76
2021/12/07 05:55:56;;;;;;;21.83;8.63;;;;;;;;;;5055790;28;20076;-76
2021/12/07 05:58:22;;;;;;;15.50;7.05;;;;;;;;;;5055710;28;20076;-76
2021/12/07 06:00:49;;;;;;;17.90;7.50;;;;;;;;;;5039315;28;20033;-76
2021/12/07 06:03:15;;;;;;;13.05;6.55;;;;;;;;;;5039005;28;20507;-76
2021/12/07 06:05:42;;;;;;;13.95;6.55;;;;;;;;;;5039000;28;20093;-77
2021/12/07 06:08:08;;;;;;;18.40;6.28;;;;;;;;;;5038983;28;20097;-77
2021/12/07 06:10:35;;;;;;;19.85;6.93;;;;;;;;;;5056054;28;20236;-76
2021/12/07 06:13:01;;;;;;;14.13;5.82;;;;;;;;;;5038878;28;20043;-76
2021/12/07 06:15:31;;;;;;;17.10;6.28;;;;;;;;;;5055456;28;20466;-76
2021/12/07 06:17:57;;;;;;;16.35;6.35;;;;;;;;;;5055352;28;20045;-76
2021/12/07 06:20:23;;;;;;;15.95;6.72;;;;;;;;;;5024355;28;20037;-77
2021/12/07 06:22:49;;;;;;;14.82;6.40;;;;;;;;;;5018898;28;20049;-76
2021/12/07 06:25:15;;;;;;;15.48;6.45;;;;;;;;;;5035439;28;20125;-77
2021/12/07 06:27:42;;;;;;;17.70;7.65;;;;;;;;;;5018538;28;20063;-76
2021/12/07 06:30:09;;;;;;;15.40;7.07;;;;;;;;;;5054427;28;20127;-77
2021/12/07 06:32:35;;;;;;;21.63;7.25;;;;;;;;;;5054594;28;20051;-76
2021/12/07 06:35:01;;;;;;;15.32;6.20;;;;;;;;;;5038798;28;20435;-76
2021/12/07 06:37:27;;;;;;;15.82;6.50;;;;;;;;;;5038352;28;20037;-76
2021/12/07 06:39:53;;;;;;;15.55;5.65;;;;;;;;;;5038442;28;20098;-77
2021/12/07 06:42:19;;;;;;;15.27;6.68;;;;;;;;;;5038553;28;20043;-76
2021/12/07 06:44:45;;;;;;;15.95;6.10;;;;;;;;;;5054655;28;20403;-77
2021/12/07 06:47:11;;;;;;;15.85;5.93;;;;;;;;;;5038629;28;20048;-76
2021/12/07 06:49:37;;;;;;;15.35;6.25;;;;;;;;;;5038504;28;20036;-76
2021/12/07 06:52:04;;;;;;;14.82;6.35;;;;;;;;;;5038172;28;20135;-76
2021/12/07 06:54:30;;;;;;;19.38;6.75;;;;;;;;;;5038602;28;20056;-77
2021/12/07 06:56:56;;;;;;;20.27;6.38;;;;;;;;;;5055143;28;20040;-76
2021/12/07 06:59:22;;;;;;;14.50;5.85;;;;;;;;;;5055268;28;20484;-76
2021/12/07 07:01:49;;;;;;;16.23;5.47;;;;;;;;;;5038399;28;20036;-77
2021/12/07 07:04:15;;;;;;;16.55;5.97;;;;;;;;;;5038017;28;20040;-77
2021/12/07 07:06:41;;;;;;;17.15;6.72;;;;;;;;;;5037867;28;20048;-76
2021/12/07 07:09:08;;;;;;;12.90;6.22;;;;;;;;;;5037842;28;20048;-76
2021/12/07 07:11:34;;;;;;;20.63;6.63;;;;;;;;;;5037693;28;20051;-76
2021/12/07 07:14:01;;;;;;;15.18;6.05;;;;;;;;;;5054323;28;20042;-76
2021/12/07 07:16:27;;;;;;;21.35;6.70;;;;;;;;;;5037579;28;20412;-75
2021/12/07 07:18:53;;;;;;;18.20;5.78;;;;;;;;;;5054424;28;20076;-76
2021/12/07 07:21:20;;;;;;;13.98;5.63;;;;;;;;;;5054261;28;20060;-76
2021/12/07 07:23:46;;;;;;;17.55;6.30;;;;;;;;;;5053975;28;20044;-75
2021/12/07 07:26:12;;;;;;;16.15;5.65;;;;;;;;;;5054091;28;20040;-76
2021/12/07 07:28:38;;;;;;;14.82;6.30;;;;;;;;;;5054383;28;20497;-76
2021/12/07 07:31:05;;;;;;;18.63;6.18;;;;;;;;;;5037452;28;20048;-76
2021/12/07 07:33:31;;;;;;;18.35;6.28;;;;;;;;;;5054059;28;20040;-76
2021/12/07 07:35:57;;;;;;;15.23;6.30;;;;;;;;;;5037648;28;20557;-76
2021/12/07 07:38:23;;;;;;;16.23;6.38;;;;;;;;;;5037744;28;20040;-77
2021/12/07 07:40:49;;;;;;;21.48;6.25;;;;;;;;;;5053851;28;20040;-76
2021/12/07 07:43:17;;;;;;;16.27;7.13;;;;;;;;;;5037193;28;20182;-76
2021/12/07 07:45:43;;;;;;;16.17;6.57;;;;;;;;;;5037097;28;20089;-76
2021/12/07 07:48:09;;;;;;;20.05;8.13;;;;;;;;;;5037516;28;20538;-76
2021/12/07 07:50:35;;;;;;;21.02;6.68;;;;;;;;;;5037086;28;20523;-76
2021/12/07 07:53:01;;;;;;;18.10;5.50;;;;;;;;;;5037452;28;20041;-76
2021/12/07 07:55:27;;;;;;;16.35;5.85;;;;;;;;;;5053656;28;20241;-76
2021/12/07 07:57:53;;;;;;;17.13;6.40;;;;;;;;;;5052837;28;20110;-76
2021/12/07 08:00:21;;;;;;;20.88;6.57;;;;;;;;;;5027790;28;20028;-77
2021/12/07 08:02:47;;;;;;;15.45;6.13;;;;;;;;;;5042702;28;20033;-76
2021/12/07 08:05:13;;;;;;;21.83;6.43;;;;;;;;;;5027590;28;20479;-76
2021/12/07 08:07:39;;;;;;;14.20;6.38;;;;;;;;;;5025566;28;20079;-76
2021/12/07 08:10:06;;;;;;;16.33;6.30;;;;;;;;;;5025385;28;20515;-76
2021/12/07 08:12:32;;;;;;;13.63;6.25;;;;;;;;;;5026941;28;20209;-76
2021/12/07 08:14:58;;;;;;;24.90;6.60;;;;;;;;;;5025009;28;20091;-76
2021/12/07 08:17:24;;;;;;;18.25;6.28;;;;;;;;;;5042210;28;20443;-76
2021/12/07 08:19:50;;;;;;;13.48;5.35;;;;;;;;;;5042971;28;20052;-76
2021/12/07 08:22:16;;;;;;;16.98;7.10;;;;;;;;;;5024003;28;20053;-77
2021/12/07 08:24:42;;;;;;;20.90;6.22;;;;;;;;;;5042225;28;20036;-76
2021/12/07 08:27:08;;;;;;;18.02;6.68;;;;;;;;;;5042599;28;20048;-76
2021/12/07 08:29:34;;;;;;;24.58;7.13;;;;;;;;;;5024417;28;20037;-76
2021/12/07 08:32:00;;;;;;;18.50;6.20;;;;;;;;;;5026168;28;20040;-76
2021/12/07 08:34:26;;;;;;;19.27;6.68;;;;;;;;;;5042445;28;20041;-76
2021/12/07 08:36:52;;;;;;;19.80;7.47;;;;;;;;;;5040947;28;20497;-76
2021/12/07 08:39:18;;;;;;;16.00;6.65;;;;;;;;;;5026517;28;20036;-76
2021/12/07 08:41:44;;;;;;;16.40;6.00;;;;;;;;;;5025570;28;20055;-76
2021/12/07 08:44:11;;;;;;;20.75;7.05;;;;;;;;;;5024675;28;20049;-76
2021/12/07 08:46:37;;;;;;;19.60;6.55;;;;;;;;;;5041149;28;20558;-76
2021/12/07 08:49:03;;;;;;;17.40;7.05;;;;;;;;;;5042234;28;20387;-76
2021/12/07 08:51:30;;;;;;;20.00;7.75;;;;;;;;;;5026370;28;20037;-76
2021/12/07 08:54:23;;;;;;;13.48;6.00;;;;;;;;;;5024312;28;20037;-76
2021/12/07 08:59:45;;;;;;;14.88;6.10;;;;;;;;;;5032139;28;20040;-76
2021/12/07 09:02:13;;;;;;;16.10;7.50;;;;;;;;;;5016265;28;20389;-76
2021/12/07 09:04:39;;;;;;;17.73;6.50;;;;;;;;;;5016589;28;20083;-75
2021/12/07 09:07:05;;;;;;;26.77;8.82;;;;;;;;;;5016863;28;20070;-76
2021/12/07 09:09:32;;;;;;;33.10;8.68;;;;;;;;;;5035889;28;20036;-76
2021/12/07 09:11:58;;;;;;;21.98;7.38;;;;;;;;;;5036081;28;20095;-76
2021/12/07 09:14:25;;;;;;;25.35;7.95;;;;;;;;;;5019473;28;20048;-76
2021/12/07 09:16:51;;;;;;;20.65;7.28;;;;;;;;;;5036577;28;20049;-76
2021/12/07 09:19:17;;;;;;;20.52;7.18;;;;;;;;;;5036602;28;20033;-76
2021/12/07 09:21:43;;;;;;;25.15;7.60;;;;;;;;;;5036299;28;20141;-76
2021/12/07 09:24:10;;;;;;;53.35;8.38;;;;;;;;;;5036658;28;20135;-76
2021/12/07 09:26:36;;;;;;;23.10;7.38;;;;;;;;;;5019826;28;20051;-76
2021/12/07 09:29:02;;;;;;;20.27;7.28;;;;;;;;;;5019913;28;20079;-76
2021/12/07 09:31:28;;;;;;;20.13;7.18;;;;;;;;;;5019904;28;20125;-76
2021/12/07 09:33:55;;;;;;;20.05;6.45;;;;;;;;;;5019892;28;20048;-76
2021/12/07 09:36:21;;;;;;;20.58;7.25;;;;;;;;;;5019965;28;20132;-76
2021/12/07 09:38:47;;;;;;;16.95;7.20;;;;;;;;;;5036541;28;20150;-76
2021/12/07 09:41:14;;;;;;;16.45;6.70;;;;;;;;;;5019699;28;20078;-76
2021/12/07 09:43:40;;;;;;;18.08;7.10;;;;;;;;;;5019435;28;20037;-76
2021/12/07 09:46:07;;;;;;;17.83;7.00;;;;;;;;;;5019503;28;20186;-76
2021/12/07 09:48:34;;;;;;;17.80;7.22;;;;;;;;;;5036159;28;20072;-76
2021/12/07 09:51:00;;;;;;;16.83;6.78;;;;;;;;;;5036186;28;20501;-76
2021/12/07 09:53:28;;;;;;;15.77;6.45;;;;;;;;;;5019253;28;20052;-76
2021/12/07 09:55:55;;;;;;;15.80;6.10;;;;;;;;;;5035873;28;20045;-76
2021/12/07 09:58:22;;;;;;;18.65;6.47;;;;;;;;;;5035800;28;20048;-78
2021/12/07 10:00:48;;;;;;;20.40;6.35;;;;;;;;;;5019670;28;20032;-77
2021/12/07 10:03:15;;;;;;;17.67;6.85;;;;;;;;;;5019507;28;20028;-77
2021/12/07 10:05:42;;;;;;;17.13;6.45;;;;;;;;;;5035643;28;20048;-77
2021/12/07 10:08:09;;;;;;;16.40;6.03;;;;;;;;;;5019163;28;20047;-78
2021/12/07 10:10:35;;;;;;;15.13;6.28;;;;;;;;;;5035686;28;20404;-77
2021/12/07 10:13:01;;;;;;;15.93;5.72;;;;;;;;;;5035392;28;20055;-77
2021/12/07 10:15:28;;;;;;;15.02;5.05;;;;;;;;;;5033913;28;20499;-77
2021/12/07 10:18:09;;;;;;;16.83;6.13;;;;;;;;;;5033801;28;20048;-77
2021/12/07 10:20:40;;;;;;;;;;;;;;;;;;5033629;28;20080;-76
2021/12/07 10:23:26;;;;;;;12.57;5.00;;;;;;;;;;5033884;28;19928;-77
2021/12/07 10:25:57;;;;;;;18.80;5.22;;;;;;;;;;5033744;28;20318;-76
2021/12/07 10:28:23;;;;;;;;;;;;;;;;;;5034282;28;20090;-76
2021/12/07 10:30:49;;;;;;;11.85;5.22;;;;;;;;;;5034077;28;19920;-76
2021/12/07 10:33:27;;;;;;;15.82;6.00;;;;;;;;;;5033841;28;20053;-76
2021/12/07 10:36:05;;;;;;;15.07;4.88;;;;;;;;;;5033741;28;20044;-77
2021/12/07 10:38:31;;;;;;;9.07;4.97;;;;;;;;;;5017232;28;20079;-76
2021/12/07 10:40:58;;;;;;;12.30;4.35;;;;;;;;;;5033988;28;20128;-76
2021/12/07 10:43:39;;;;;;;14.25;4.80;;;;;;;;;;5033276;28;20037;-76
2021/12/07 10:46:05;;;;;;;;;;;;;;;;;;5017928;28;20040;-77
2021/12/07 10:48:31;;;;;;;14.45;5.03;;;;;;;;;;5017026;28;20280;-77
2021/12/07 10:50:58;;;;;;;13.05;4.80;;;;;;;;;;5033237;28;20041;-77
2021/12/07 10:53:24;;;;;;;12.45;4.82;;;;;;;;;;5034968;28;20501;-75
2021/12/07 10:55:50;;;;;;;12.98;4.43;;;;;;;;;;5034511;28;20049;-77
2021/12/07 10:58:16;;;;;;;14.57;4.90;;;;;;;;;;5034907;28;20033;-75
2021/12/07 11:00:46;;;;;;;12.77;4.43;;;;;;;;;;5018213;28;20068;-76
2021/12/07 11:03:14;;;;;;;10.65;4.43;;;;;;;;;;5034853;28;20037;-76
2021/12/07 11:05:40;;;;;;;14.73;4.18;;;;;;;;;;5034875;28;20064;-76
2021/12/07 11:08:08;;;;;;;10.40;4.47;;;;;;;;;;5018223;28;20107;-78
2021/12/07 11:10:37;;;;;;;17.20;4.70;;;;;;;;;;5034543;28;20080;-77
2021/12/07 11:13:19;;;;;;;17.88;4.32;;;;;;;;;;5034515;28;20408;-77
2021/12/07 11:15:56;;;;;;;11.25;4.57;;;;;;;;;;5018067;28;20464;-76
2021/12/07 11:18:24;;;;;;;11.20;5.32;;;;;;;;;;5034827;28;20045;-77
2021/12/07 11:20:51;;;;;;;14.38;4.50;;;;;;;;;;5017692;28;20036;-76
2021/12/07 11:23:21;;;;;;;8.75;4.25;;;;;;;;;;5034429;28;20049;-76
2021/12/07 11:31:25;;;;;;;7.72;4.18;;;;;;;;;;5033962;28;20041;-77
2021/12/07 11:33:52;;;;;;;9.60;3.80;;;;;;;;;;5017515;28;20493;-77
2021/12/07 11:36:24;;;;;;;9.20;4.20;;;;;;;;;;5017592;28;20049;-75
2021/12/07 11:38:50;;;;;;;9.85;3.92;;;;;;;;;;5034102;28;20045;-77
2021/12/07 11:41:20;;;;;;;9.98;4.65;;;;;;;;;;5034039;28;20068;-77
2021/12/07 11:43:50;;;;;;;16.27;4.30;;;;;;;;;;5017400;28;20476;-76
2021/12/07 11:46:23;;;;;;;17.73;4.50;;;;;;;;;;5017490;28;20048;-77
2021/12/07 11:48:49;;;;;;;12.27;4.60;;;;;;;;;;5017456;28;20700;-77
2021/12/07 11:51:15;;;;;;;15.50;4.93;;;;;;;;;;5017326;28;20092;-77
2021/12/07 11:53:42;;;;;;;11.60;3.83;;;;;;;;;;5033799;28;20049;-76
2021/12/07 11:56:08;;;;;;;11.90;4.32;;;;;;;;;;5017314;28;20049;-77
2021/12/07 11:58:35;;;;;;;12.90;4.03;;;;;;;;;;5017315;28;20131;-76
2021/12/07 12:01:05;;;;;;;12.18;5.30;;;;;;;;;;5017258;28;20511;-77
2021/12/07 12:03:31;;;;;;;13.88;4.15;;;;;;;;;;5017609;28;20469;-75
2021/12/07 12:05:59;;;;;;;15.45;4.75;;;;;;;;;;5033727;28;20037;-75
2021/12/07 12:08:25;;;;;;;10.15;3.92;;;;;;;;;;5033956;28;20052;-77
2021/12/07 12:10:57;;;;;;;13.50;5.13;;;;;;;;;;5017059;28;20127;-77
2021/12/07 12:13:27;;;;;;;10.10;4.43;;;;;;;;;;5033358;28;20049;-77
2021/12/07 12:16:02;;;;;;;13.70;4.38;;;;;;;;;;5033658;28;20041;-76
2021/12/07 12:18:45;;;;;;;10.38;4.28;;;;;;;;;;5017338;28;20048;-75
2021/12/07 12:21:15;;;;;;;9.73;4.03;;;;;;;;;;5033325;28;20052;-77
2021/12/07 12:24:00;;;;;;;9.27;3.80;;;;;;;;;;5017120;28;20552;-75
2021/12/07 12:26:27;;;;;;;7.45;3.85;;;;;;;;;;5017062;28;20484;-74
2021/12/07 12:28:53;;;;;;;15.50;4.57;;;;;;;;;;5033473;28;20041;-76
2021/12/07 12:31:20;;;;;;;10.13;4.38;;;;;;;;;;5016870;28;20135;-76
2021/12/07 12:33:49;;;;;;;8.73;3.95;;;;;;;;;;5016929;28;20045;-76
2021/12/07 12:36:15;;;;;;;9.45;3.72;;;;;;;;;;5033492;28;20048;-77
2021/12/07 12:38:48;;;;;;;9.77;3.17;;;;;;;;;;5033139;28;20041;-77
2021/12/07 12:41:14;;;;;;;9.30;4.63;;;;;;;;;;5016996;28;20033;-77
2021/12/07 12:43:52;;;;;;;10.32;4.30;;;;;;;;;;5018368;28;20040;-76
2021/12/07 12:46:21;;;;;;;12.40;3.97;;;;;;;;;;5037019;28;20045;-77
2021/12/07 12:48:52;;;;;;;12.20;4.82;;;;;;;;;;5037225;28;20055;-76
2021/12/07 12:51:18;;;;;;;13.20;4.78;;;;;;;;;;5037224;28;20081;-76
2021/12/07 12:53:45;;;;;;;9.07;4.20;;;;;;;;;;5020687;28;20048;-77
2021/12/07 12:56:23;;;;;;;12.93;4.18;;;;;;;;;;5037010;28;20052;-75
2021/12/07 12:58:50;;;;;;;8.63;4.30;;;;;;;;;;5037008;28;20048;-77
2021/12/07 13:01:24;;;;;;;9.65;4.22;;;;;;;;;;5020659;28;20408;-77
2021/12/07 13:03:55;;;;;;;12.68;4.30;;;;;;;;;;5036946;28;20067;-76
2021/12/07 13:06:21;;;;;;;10.25;4.03;;;;;;;;;;5037176;28;20560;-77
2021/12/07 13:09:25;;;;;;;8.65;3.53;;;;;;;;;;5020384;28;20139;-76
2021/12/07 13:12:00;;;;;;;10.35;4.10;;;;;;;;;;4957399;28;20042;-77
2021/12/07 13:14:26;;;;;;;9.85;4.30;;;;;;;;;;4957711;28;20112;-77
2021/12/07 13:16:52;;;;;;;10.65;3.83;;;;;;;;;;4992360;28;20134;-77
2021/12/07 13:19:19;;;;;;;9.32;4.25;;;;;;;;;;5036816;28;20084;-77
2021/12/07 13:21:46;;;;;;;12.30;4.32;;;;;;;;;;5036802;28;20087;-77
2021/12/07 13:24:15;;;;;;;12.48;4.65;;;;;;;;;;5036992;28;20370;-77
2021/12/07 13:26:42;;;;;;;9.35;3.80;;;;;;;;;;5019938;28;20052;-77
2021/12/07 13:29:13;;;;;;;11.10;4.07;;;;;;;;;;5020076;28;20040;-76
2021/12/07 13:31:41;;;;;;;16.58;5.70;;;;;;;;;;5020345;28;20049;-77
2021/12/07 13:34:07;;;;;;;12.90;4.85;;;;;;;;;;5020158;28;20539;-77
2021/12/07 13:36:39;;;;;;;13.05;4.50;;;;;;;;;;5036504;28;20063;-75
2021/12/07 13:39:07;;;;;;;13.65;4.13;;;;;;;;;;5020138;28;20037;-77
2021/12/07 13:41:34;;;;;;;14.05;4.90;;;;;;;;;;5019731;28;20443;-77
2021/12/07 13:44:00;;;;;;;13.77;5.05;;;;;;;;;;5036136;28;20041;-77
2021/12/07 13:46:27;;;;;;;10.45;3.90;;;;;;;;;;5036326;28;20055;-76
2021/12/07 13:49:03;;;;;;;10.40;3.90;;;;;;;;;;5036148;28;20400;-77
2021/12/07 13:51:29;;;;;;;8.82;4.63;;;;;;;;;;5036254;28;20385;-77
2021/12/07 13:53:55;;;;;;;9.75;4.50;;;;;;;;;;5036311;28;20044;-76
2021/12/07 13:56:21;;;;;;;8.05;3.85;;;;;;;;;;5034827;28;20052;-77
2021/12/07 13:59:04;;;;;;;9.07;4.30;;;;;;;;;;5019757;28;20083;-77
2021/12/07 14:01:31;;;;;;;11.10;4.57;;;;;;;;;;5019588;28;20066;-76
2021/12/07 14:03:58;;;;;;;11.88;4.60;;;;;;;;;;5035726;28;20041;-77
2021/12/07 14:06:24;;;;;;;10.43;4.90;;;;;;;;;;5019300;28;20045;-76
2021/12/07 14:08:51;;;;;;;11.55;4.82;;;;;;;;;;5035991;28;20152;-76
2021/12/07 14:11:18;;;;;;;11.55;4.35;;;;;;;;;;5019670;28;20045;-76
2021/12/07 14:13:45;;;;;;;13.63;4.55;;;;;;;;;;5035651;28;20443;-76
2021/12/07 14:16:12;;;;;;;8.38;3.95;;;;;;;;;;5019043;28;20131;-76
2021/12/07 14:18:39;;;;;;;9.20;4.28;;;;;;;;;;5035567;28;20033;-77
2021/12/07 14:21:05;;;;;;;8.57;4.78;;;;;;;;;;5035303;28;20053;-76
2021/12/07 14:23:33;;;;;;;16.77;6.65;;;;;;;;;;5019269;28;20043;-77
2021/12/07 14:26:07;;;;;;;17.27;9.35;;;;;;;;;;5018860;28;20045;-77
2021/12/07 14:28:38;;;;;;;15.38;7.30;;;;;;;;;;5035402;28;20087;-76
2021/12/07 14:31:04;;;;;;;15.77;7.53;;;;;;;;;;5015900;28;20037;-77
2021/12/07 14:33:30;;;;;;;19.17;7.05;;;;;;;;;;5015226;28;20045;-76
2021/12/07 14:35:58;;;;;;;10.25;4.93;;;;;;;;;;5031921;28;20045;-76
2021/12/07 14:38:24;;;;;;;15.88;6.47;;;;;;;;;;5031992;28;20045;-77
2021/12/07 14:40:50;;;;;;;12.23;5.65;;;;;;;;;;5015223;28;20088;-77
2021/12/07 14:43:17;;;;;;;11.93;5.32;;;;;;;;;;5031589;28;20489;-76
2021/12/07 14:45:43;;;;;;;10.25;5.75;;;;;;;;;;5014434;28;20068;-77
2021/12/07 14:48:10;;;;;;;19.20;6.97;;;;;;;;;;5015008;28;20400;-77
2021/12/07 14:50:36;;;;;;;13.48;5.75;;;;;;;;;;5014981;28;20067;-77
2021/12/07 14:53:03;;;;;;;11.95;5.78;;;;;;;;;;5031687;28;20501;-77
2021/12/07 14:55:29;;;;;;;13.38;6.15;;;;;;;;;;5014946;28;20551;-76
2021/12/07 14:57:55;;;;;;;17.70;7.10;;;;;;;;;;5030851;28;20045;-77
2021/12/07 15:00:21;;;;;;;16.98;7.50;;;;;;;;;;5031083;28;20569;-77
2021/12/07 15:02:48;;;;;;;11.77;6.15;;;;;;;;;;5014864;28;20263;-76
2021/12/07 15:05:14;;;;;;;12.60;6.55;;;;;;;;;;5014854;28;20566;-76
2021/12/07 15:07:41;;;;;;;14.30;6.05;;;;;;;;;;5031032;28;20055;-77
2021/12/07 15:10:13;;;;;;;13.10;6.07;;;;;;;;;;5014075;28;20053;-77
2021/12/07 15:12:40;;;;;;;19.95;7.05;;;;;;;;;;5014815;28;20076;-76
2021/12/07 15:15:07;;;;;;;17.60;7.38;;;;;;;;;;5017746;28;20048;-76
2021/12/07 15:17:33;;;;;;;21.08;8.30;;;;;;;;;;5034967;28;20104;-77
2021/12/07 15:20:00;;;;;;;16.98;8.13;;;;;;;;;;5033710;28;20045;-76
2021/12/07 15:22:26;;;;;;;20.23;8.10;;;;;;;;;;5017437;28;20053;-76
2021/12/07 15:24:52;;;;;;;16.45;7.57;;;;;;;;;;5017486;28;20498;-76
2021/12/07 15:27:21;;;;;;;20.00;8.02;;;;;;;;;;5017966;28;20043;-76
2021/12/07 15:29:49;;;;;;;20.77;8.73;;;;;;;;;;5033911;28;20041;-76
2021/12/07 15:32:15;;;;;;;19.60;8.82;;;;;;;;;;5033900;28;20408;-77
2021/12/07 15:34:42;;;;;;;24.15;10.27;;;;;;;;;;5033935;28;20045;-77
2021/12/07 15:37:11;;;;;;;23.63;8.80;;;;;;;;;;5017443;28;20079;-77
2021/12/07 15:39:38;;;;;;;24.38;9.43;;;;;;;;;;5034026;28;20040;-77
2021/12/07 15:42:06;;;;;;;21.50;9.40;;;;;;;;;;5017086;28;20043;-77
2021/12/07 15:44:34;;;;;;;23.48;9.43;;;;;;;;;;5017101;28;20041;-76
2021/12/07 15:47:03;;;;;;;19.02;8.95;;;;;;;;;;5017163;28;20527;-76
2021/12/07 15:49:34;;;;;;;24.60;8.70;;;;;;;;;;5017042;28;20154;-77
2021/12/07 15:52:02;;;;;;;18.85;9.18;;;;;;;;;;5033761;28;20044;-76
2021/12/07 15:54:28;;;;;;;22.02;8.77;;;;;;;;;;5033293;28;20560;-77
2021/12/07 15:57:05;;;;;;;18.95;8.75;;;;;;;;;;5033398;28;20412;-77
2021/12/07 15:59:32;;;;;;;19.02;8.43;;;;;;;;;;5033431;28;20064;-76
2021/12/07 16:01:58;;;;;;;23.15;9.32;;;;;;;;;;5033816;28;20043;-76
2021/12/07 16:04:29;;;;;;;21.55;11.32;;;;;;;;;;5033194;28;20044;-77
2021/12/07 16:06:55;;;;;;;26.83;10.98;;;;;;;;;;5033130;28;20094;-76
2021/12/07 16:09:22;;;;;;;29.25;11.23;;;;;;;;;;5017138;28;20135;-76